sensor_id;sensor_type;location;lat;lon;timestamp;P1;durP1;ratioP1;P2;durP2;ratioP2
83306;SDS011;73223;48.584;13.460;2023-11-21T00:01:05;6.90;;;2.50;;
83306;SDS011;73223;48.584;13.460;2023-11-21T00:03:33;10.00;;;2.70;;
83306;SDS011;73223;48.584;13.460;2023-11-21T00:05:59;6.47;;;2.30;;
83306;SDS011;73223;48.584;13.460;2023-11-21T00:08:25;8.55;;;2.70;;
83306;SDS011;73223;48.584;13.460;2023-11-21T00:10:50;8.83;;;2.53;;
83306;SDS011;73223;48.584;13.460;2023-11-21T00:13:16;9.93;;;2.85;;
83306;SDS011;73223;48.584;13.460;2023-11-21T00:15:42;7.13;;;2.45;;
83306;SDS011;73223;48.584;13.460;2023-11-21T00:18:08;7.38;;;2.60;;
83306;SDS011;73223;48.584;13.460;2023-11-21T00:20:33;9.00;;;2.78;;
83306;SDS011;73223;48.584;13.460;2023-11-21T00:22:58;55.72;;;3.78;;
83306;SDS011;73223;48.584;13.460;2023-11-21T00:25:24;7.70;;;2.85;;
83306;SDS011;73223;48.584;13.460;2023-11-21T00:27:50;6.22;;;2.47;;
83306;SDS011;73223;48.584;13.460;2023-11-21T00:30:15;6.43;;;2.72;;
83306;SDS011;73223;48.584;13.460;2023-11-21T00:32:40;10.88;;;2.50;;
83306;SDS011;73223;48.584;13.460;2023-11-21T00:35:06;7.53;;;2.80;;
83306;SDS011;73223;48.584;13.460;2023-11-21T00:37:32;7.05;;;2.78;;
83306;SDS011;73223;48.584;13.460;2023-11-21T00:39:57;9.05;;;2.33;;
83306;SDS011;73223;48.584;13.460;2023-11-21T00:42:23;8.20;;;2.53;;
83306;SDS011;73223;48.584;13.460;2023-11-21T00:44:48;8.60;;;2.72;;
83306;SDS011;73223;48.584;13.460;2023-11-21T00:47:14;8.48;;;2.83;;
83306;SDS011;73223;48.584;13.460;2023-11-21T00:49:39;10.20;;;2.92;;
83306;SDS011;73223;48.584;13.460;2023-11-21T00:52:05;6.45;;;2.30;;
83306;SDS011;73223;48.584;13.460;2023-11-21T00:54:30;7.43;;;2.53;;
83306;SDS011;73223;48.584;13.460;2023-11-21T00:56:55;9.07;;;2.53;;
83306;SDS011;73223;48.584;13.460;2023-11-21T00:59:21;7.07;;;2.45;;
83306;SDS011;73223;48.584;13.460;2023-11-21T01:04:13;6.60;;;2.70;;
83306;SDS011;73223;48.584;13.460;2023-11-21T01:06:38;6.57;;;2.92;;
83306;SDS011;73223;48.584;13.460;2023-11-21T01:09:03;10.32;;;2.55;;
83306;SDS011;73223;48.584;13.460;2023-11-21T01:11:33;8.25;;;2.75;;
83306;SDS011;73223;48.584;13.460;2023-11-21T01:14:01;7.68;;;2.70;;
83306;SDS011;73223;48.584;13.460;2023-11-21T01:16:28;8.25;;;2.75;;
83306;SDS011;73223;48.584;13.460;2023-11-21T01:18:53;9.07;;;2.53;;
83306;SDS011;73223;48.584;13.460;2023-11-21T01:21:18;7.20;;;2.70;;
83306;SDS011;73223;48.584;13.460;2023-11-21T01:23:44;7.20;;;2.47;;
83306;SDS011;73223;48.584;13.460;2023-11-21T01:26:09;6.37;;;2.47;;
83306;SDS011;73223;48.584;13.460;2023-11-21T01:28:34;8.52;;;3.10;;
83306;SDS011;73223;48.584;13.460;2023-11-21T01:31:00;10.00;;;3.03;;
83306;SDS011;73223;48.584;13.460;2023-11-21T01:33:25;9.80;;;2.90;;
83306;SDS011;73223;48.584;13.460;2023-11-21T01:35:51;9.82;;;3.20;;
83306;SDS011;73223;48.584;13.460;2023-11-21T01:38:19;7.45;;;2.95;;
83306;SDS011;73223;48.584;13.460;2023-11-21T01:40:45;8.00;;;2.60;;
83306;SDS011;73223;48.584;13.460;2023-11-21T01:43:10;7.22;;;2.72;;
83306;SDS011;73223;48.584;13.460;2023-11-21T01:45:35;8.57;;;2.63;;
83306;SDS011;73223;48.584;13.460;2023-11-21T01:48:00;9.67;;;3.03;;
83306;SDS011;73223;48.584;13.460;2023-11-21T01:50:27;13.35;;;2.35;;
83306;SDS011;73223;48.584;13.460;2023-11-21T01:52:53;15.73;;;3.28;;
83306;SDS011;73223;48.584;13.460;2023-11-21T01:55:19;11.65;;;3.25;;
83306;SDS011;73223;48.584;13.460;2023-11-21T01:57:45;8.93;;;3.17;;
83306;SDS011;73223;48.584;13.460;2023-11-21T02:00:11;8.25;;;2.65;;
83306;SDS011;73223;48.584;13.460;2023-11-21T02:02:47;9.90;;;3.17;;
83306;SDS011;73223;48.584;13.460;2023-11-21T02:05:17;15.60;;;3.13;;
83306;SDS011;73223;48.584;13.460;2023-11-21T02:07:49;17.38;;;3.05;;
83306;SDS011;73223;48.584;13.460;2023-11-21T02:10:15;8.70;;;2.88;;
83306;SDS011;73223;48.584;13.460;2023-11-21T02:12:44;6.57;;;2.70;;
83306;SDS011;73223;48.584;13.460;2023-11-21T02:15:13;9.55;;;2.50;;
83306;SDS011;73223;48.584;13.460;2023-11-21T02:17:45;9.63;;;2.75;;
83306;SDS011;73223;48.584;13.460;2023-11-21T02:20:16;9.20;;;2.72;;
83306;SDS011;73223;48.584;13.460;2023-11-21T02:22:43;8.20;;;3.17;;
83306;SDS011;73223;48.584;13.460;2023-11-21T02:27:36;9.15;;;2.83;;
83306;SDS011;73223;48.584;13.460;2023-11-21T02:30:01;8.27;;;3.03;;
83306;SDS011;73223;48.584;13.460;2023-11-21T02:32:29;7.75;;;2.92;;
83306;SDS011;73223;48.584;13.460;2023-11-21T02:34:56;7.22;;;2.75;;
83306;SDS011;73223;48.584;13.460;2023-11-21T02:37:25;9.85;;;3.42;;
83306;SDS011;73223;48.584;13.460;2023-11-21T02:39:51;8.07;;;2.78;;
83306;SDS011;73223;48.584;13.460;2023-11-21T02:42:16;8.33;;;2.80;;
83306;SDS011;73223;48.584;13.460;2023-11-21T02:44:41;11.00;;;3.10;;
83306;SDS011;73223;48.584;13.460;2023-11-21T02:47:06;7.07;;;2.77;;
83306;SDS011;73223;48.584;13.460;2023-11-21T02:49:32;8.53;;;3.07;;
83306;SDS011;73223;48.584;13.460;2023-11-21T02:51:59;8.23;;;2.85;;
83306;SDS011;73223;48.584;13.460;2023-11-21T02:54:26;9.40;;;3.15;;
83306;SDS011;73223;48.584;13.460;2023-11-21T02:56:52;9.13;;;3.05;;
83306;SDS011;73223;48.584;13.460;2023-11-21T02:59:17;9.45;;;3.10;;
83306;SDS011;73223;48.584;13.460;2023-11-21T03:01:42;9.60;;;3.17;;
83306;SDS011;73223;48.584;13.460;2023-11-21T03:04:08;16.30;;;3.77;;
83306;SDS011;73223;48.584;13.460;2023-11-21T03:06:33;9.48;;;3.95;;
83306;SDS011;73223;48.584;13.460;2023-11-21T03:08:59;16.25;;;3.85;;
83306;SDS011;73223;48.584;13.460;2023-11-21T03:11:24;30.08;;;4.05;;
83306;SDS011;73223;48.584;13.460;2023-11-21T03:13:49;30.25;;;4.78;;
83306;SDS011;73223;48.584;13.460;2023-11-21T03:16:15;15.02;;;3.65;;
83306;SDS011;73223;48.584;13.460;2023-11-21T03:18:41;9.85;;;3.72;;
83306;SDS011;73223;48.584;13.460;2023-11-21T03:21:06;10.53;;;3.80;;
83306;SDS011;73223;48.584;13.460;2023-11-21T03:23:35;8.75;;;3.20;;
83306;SDS011;73223;48.584;13.460;2023-11-21T03:26:01;7.57;;;2.90;;
83306;SDS011;73223;48.584;13.460;2023-11-21T03:28:27;9.10;;;3.10;;
83306;SDS011;73223;48.584;13.460;2023-11-21T03:30:53;10.40;;;3.22;;
83306;SDS011;73223;48.584;13.460;2023-11-21T03:33:18;11.98;;;2.95;;
83306;SDS011;73223;48.584;13.460;2023-11-21T03:35:44;9.30;;;2.95;;
83306;SDS011;73223;48.584;13.460;2023-11-21T03:38:09;8.95;;;3.17;;
83306;SDS011;73223;48.584;13.460;2023-11-21T03:40:35;8.35;;;3.25;;
83306;SDS011;73223;48.584;13.460;2023-11-21T03:43:00;8.43;;;2.83;;
83306;SDS011;73223;48.584;13.460;2023-11-21T03:45:25;7.90;;;2.88;;
83306;SDS011;73223;48.584;13.460;2023-11-21T03:47:51;9.77;;;3.10;;
83306;SDS011;73223;48.584;13.460;2023-11-21T03:50:16;9.00;;;2.60;;
83306;SDS011;73223;48.584;13.460;2023-11-21T03:52:41;13.48;;;3.00;;
83306;SDS011;73223;48.584;13.460;2023-11-21T03:55:07;9.32;;;2.75;;
83306;SDS011;73223;48.584;13.460;2023-11-21T03:57:33;10.25;;;2.65;;
83306;SDS011;73223;48.584;13.460;2023-11-21T03:59:58;10.07;;;3.45;;
83306;SDS011;73223;48.584;13.460;2023-11-21T04:02:24;9.13;;;3.30;;
83306;SDS011;73223;48.584;13.460;2023-11-21T04:04:50;9.40;;;3.33;;
83306;SDS011;73223;48.584;13.460;2023-11-21T04:07:16;6.30;;;2.50;;
83306;SDS011;73223;48.584;13.460;2023-11-21T04:09:42;8.85;;;2.80;;
83306;SDS011;73223;48.584;13.460;2023-11-21T04:12:07;6.28;;;2.50;;
83306;SDS011;73223;48.584;13.460;2023-11-21T04:14:34;7.78;;;2.58;;
83306;SDS011;73223;48.584;13.460;2023-11-21T04:16:59;10.93;;;3.30;;
83306;SDS011;73223;48.584;13.460;2023-11-21T04:19:25;7.45;;;2.78;;
83306;SDS011;73223;48.584;13.460;2023-11-21T04:21:50;9.13;;;2.88;;
83306;SDS011;73223;48.584;13.460;2023-11-21T04:24:16;12.98;;;3.22;;
83306;SDS011;73223;48.584;13.460;2023-11-21T04:26:41;9.57;;;3.27;;
83306;SDS011;73223;48.584;13.460;2023-11-21T04:29:06;8.25;;;3.55;;
83306;SDS011;73223;48.584;13.460;2023-11-21T04:31:32;9.00;;;3.40;;
83306;SDS011;73223;48.584;13.460;2023-11-21T04:33:57;10.17;;;3.23;;
83306;SDS011;73223;48.584;13.460;2023-11-21T04:36:22;62.65;;;4.72;;
83306;SDS011;73223;48.584;13.460;2023-11-21T04:38:48;12.80;;;3.70;;
83306;SDS011;73223;48.584;13.460;2023-11-21T04:41:13;16.00;;;3.10;;
83306;SDS011;73223;48.584;13.460;2023-11-21T04:43:38;10.23;;;3.05;;
83306;SDS011;73223;48.584;13.460;2023-11-21T04:46:03;7.70;;;3.10;;
83306;SDS011;73223;48.584;13.460;2023-11-21T04:48:29;10.63;;;3.53;;
83306;SDS011;73223;48.584;13.460;2023-11-21T04:50:54;8.90;;;3.47;;
83306;SDS011;73223;48.584;13.460;2023-11-21T04:53:19;9.00;;;3.50;;
83306;SDS011;73223;48.584;13.460;2023-11-21T04:55:45;7.77;;;3.17;;
83306;SDS011;73223;48.584;13.460;2023-11-21T04:58:10;8.90;;;3.28;;
83306;SDS011;73223;48.584;13.460;2023-11-21T05:00:37;9.15;;;3.67;;
83306;SDS011;73223;48.584;13.460;2023-11-21T05:03:02;13.02;;;3.70;;
83306;SDS011;73223;48.584;13.460;2023-11-21T05:05:29;9.07;;;3.15;;
83306;SDS011;73223;48.584;13.460;2023-11-21T05:07:55;13.23;;;3.58;;
83306;SDS011;73223;48.584;13.460;2023-11-21T05:10:20;8.30;;;3.10;;
83306;SDS011;73223;48.584;13.460;2023-11-21T05:12:47;7.70;;;3.05;;
83306;SDS011;73223;48.584;13.460;2023-11-21T05:15:13;7.57;;;2.95;;
83306;SDS011;73223;48.584;13.460;2023-11-21T05:20:09;9.95;;;3.30;;
83306;SDS011;73223;48.584;13.460;2023-11-21T05:22:36;9.13;;;3.70;;
83306;SDS011;73223;48.584;13.460;2023-11-21T05:25:02;10.60;;;3.58;;
83306;SDS011;73223;48.584;13.460;2023-11-21T05:29:54;9.90;;;3.45;;
83306;SDS011;73223;48.584;13.460;2023-11-21T05:32:20;10.83;;;3.30;;
83306;SDS011;73223;48.584;13.460;2023-11-21T05:34:45;9.03;;;3.27;;
83306;SDS011;73223;48.584;13.460;2023-11-21T05:37:10;8.90;;;3.40;;
83306;SDS011;73223;48.584;13.460;2023-11-21T05:39:35;9.37;;;3.50;;
83306;SDS011;73223;48.584;13.460;2023-11-21T05:42:01;10.88;;;3.63;;
83306;SDS011;73223;48.584;13.460;2023-11-21T05:44:26;8.43;;;3.00;;
83306;SDS011;73223;48.584;13.460;2023-11-21T05:46:51;7.80;;;3.57;;
83306;SDS011;73223;48.584;13.460;2023-11-21T05:49:17;8.52;;;3.15;;
83306;SDS011;73223;48.584;13.460;2023-11-21T05:51:42;8.98;;;3.42;;
83306;SDS011;73223;48.584;13.460;2023-11-21T05:54:08;8.47;;;3.43;;
83306;SDS011;73223;48.584;13.460;2023-11-21T05:56:33;9.13;;;3.70;;
83306;SDS011;73223;48.584;13.460;2023-11-21T05:58:58;11.93;;;4.10;;
83306;SDS011;73223;48.584;13.460;2023-11-21T06:01:24;9.52;;;3.33;;
83306;SDS011;73223;48.584;13.460;2023-11-21T06:03:53;12.32;;;3.78;;
83306;SDS011;73223;48.584;13.460;2023-11-21T06:06:18;11.40;;;4.70;;
83306;SDS011;73223;48.584;13.460;2023-11-21T06:08:44;10.27;;;4.20;;
83306;SDS011;73223;48.584;13.460;2023-11-21T06:11:09;8.83;;;3.70;;
83306;SDS011;73223;48.584;13.460;2023-11-21T06:13:36;8.38;;;3.70;;
83306;SDS011;73223;48.584;13.460;2023-11-21T06:16:01;6.17;;;2.73;;
83306;SDS011;73223;48.584;13.460;2023-11-21T06:18:27;9.50;;;3.30;;
83306;SDS011;73223;48.584;13.460;2023-11-21T06:20:52;8.53;;;3.43;;
83306;SDS011;73223;48.584;13.460;2023-11-21T06:23:18;12.25;;;3.75;;
83306;SDS011;73223;48.584;13.460;2023-11-21T06:25:43;91.40;;;5.53;;
83306;SDS011;73223;48.584;13.460;2023-11-21T06:28:08;37.65;;;5.03;;
83306;SDS011;73223;48.584;13.460;2023-11-21T06:30:34;24.58;;;4.13;;
83306;SDS011;73223;48.584;13.460;2023-11-21T06:32:59;24.92;;;4.63;;
83306;SDS011;73223;48.584;13.460;2023-11-21T06:35:24;39.17;;;4.93;;
83306;SDS011;73223;48.584;13.460;2023-11-21T06:37:52;11.75;;;4.03;;
83306;SDS011;73223;48.584;13.460;2023-11-21T06:40:18;9.93;;;3.90;;
83306;SDS011;73223;48.584;13.460;2023-11-21T06:42:43;10.82;;;3.83;;
83306;SDS011;73223;48.584;13.460;2023-11-21T06:45:09;35.17;;;4.72;;
83306;SDS011;73223;48.584;13.460;2023-11-21T06:47:35;16.98;;;4.03;;
83306;SDS011;73223;48.584;13.460;2023-11-21T06:52:28;9.43;;;3.83;;
83306;SDS011;73223;48.584;13.460;2023-11-21T06:54:54;10.65;;;3.78;;
83306;SDS011;73223;48.584;13.460;2023-11-21T06:57:19;11.95;;;3.67;;
83306;SDS011;73223;48.584;13.460;2023-11-21T06:59:45;14.68;;;4.50;;
83306;SDS011;73223;48.584;13.460;2023-11-21T07:02:10;11.82;;;4.18;;
83306;SDS011;73223;48.584;13.460;2023-11-21T07:04:36;41.90;;;5.05;;
83306;SDS011;73223;48.584;13.460;2023-11-21T07:07:04;21.65;;;4.70;;
83306;SDS011;73223;48.584;13.460;2023-11-21T07:09:31;9.40;;;3.88;;
83306;SDS011;73223;48.584;13.460;2023-11-21T07:11:57;11.45;;;3.75;;
83306;SDS011;73223;48.584;13.460;2023-11-21T07:14:22;16.25;;;4.13;;
83306;SDS011;73223;48.584;13.460;2023-11-21T07:16:48;8.55;;;3.88;;
83306;SDS011;73223;48.584;13.460;2023-11-21T07:19:13;15.25;;;4.30;;
83306;SDS011;73223;48.584;13.460;2023-11-21T07:21:39;9.35;;;3.85;;
83306;SDS011;73223;48.584;13.460;2023-11-21T07:24:05;11.80;;;3.97;;
83306;SDS011;73223;48.584;13.460;2023-11-21T07:26:32;12.40;;;3.85;;
83306;SDS011;73223;48.584;13.460;2023-11-21T07:28:58;12.95;;;4.43;;
83306;SDS011;73223;48.584;13.460;2023-11-21T07:31:25;11.38;;;4.60;;
83306;SDS011;73223;48.584;13.460;2023-11-21T07:33:51;17.05;;;4.85;;
83306;SDS011;73223;48.584;13.460;2023-11-21T07:36:17;12.93;;;4.80;;
83306;SDS011;73223;48.584;13.460;2023-11-21T07:38:48;12.48;;;4.60;;
83306;SDS011;73223;48.584;13.460;2023-11-21T07:41:14;12.95;;;4.82;;
83306;SDS011;73223;48.584;13.460;2023-11-21T07:43:43;15.52;;;5.43;;
83306;SDS011;73223;48.584;13.460;2023-11-21T07:46:12;12.05;;;4.47;;
83306;SDS011;73223;48.584;13.460;2023-11-21T07:48:38;11.25;;;4.45;;
83306;SDS011;73223;48.584;13.460;2023-11-21T07:51:07;11.85;;;4.80;;
83306;SDS011;73223;48.584;13.460;2023-11-21T07:53:33;18.83;;;4.60;;
83306;SDS011;73223;48.584;13.460;2023-11-21T07:56:02;11.82;;;4.20;;
83306;SDS011;73223;48.584;13.460;2023-11-21T07:58:29;12.43;;;4.45;;
83306;SDS011;73223;48.584;13.460;2023-11-21T08:00:54;13.38;;;4.72;;
83306;SDS011;73223;48.584;13.460;2023-11-21T08:03:19;12.97;;;3.93;;
83306;SDS011;73223;48.584;13.460;2023-11-21T08:05:45;10.63;;;4.10;;
83306;SDS011;73223;48.584;13.460;2023-11-21T08:08:11;11.32;;;4.43;;
83306;SDS011;73223;48.584;13.460;2023-11-21T08:10:36;10.60;;;4.73;;
83306;SDS011;73223;48.584;13.460;2023-11-21T08:13:02;13.30;;;4.63;;
83306;SDS011;73223;48.584;13.460;2023-11-21T08:15:28;11.63;;;4.00;;
83306;SDS011;73223;48.584;13.460;2023-11-21T08:17:54;8.23;;;3.67;;
83306;SDS011;73223;48.584;13.460;2023-11-21T08:20:19;11.03;;;4.60;;
83306;SDS011;73223;48.584;13.460;2023-11-21T08:22:44;11.25;;;4.13;;
83306;SDS011;73223;48.584;13.460;2023-11-21T08:25:10;13.27;;;4.00;;
83306;SDS011;73223;48.584;13.460;2023-11-21T08:27:37;9.93;;;3.88;;
83306;SDS011;73223;48.584;13.460;2023-11-21T08:30:02;15.02;;;4.72;;
83306;SDS011;73223;48.584;13.460;2023-11-21T08:32:28;10.65;;;4.15;;
83306;SDS011;73223;48.584;13.460;2023-11-21T08:34:55;9.98;;;3.88;;
83306;SDS011;73223;48.584;13.460;2023-11-21T08:37:20;11.37;;;4.20;;
83306;SDS011;73223;48.584;13.460;2023-11-21T08:39:47;12.43;;;4.27;;
83306;SDS011;73223;48.584;13.460;2023-11-21T08:42:13;12.35;;;4.25;;
83306;SDS011;73223;48.584;13.460;2023-11-21T08:44:39;11.20;;;4.05;;
83306;SDS011;73223;48.584;13.460;2023-11-21T08:47:05;13.23;;;4.47;;
83306;SDS011;73223;48.584;13.460;2023-11-21T08:49:30;13.55;;;4.55;;
83306;SDS011;73223;48.584;13.460;2023-11-21T08:51:55;11.45;;;4.57;;
83306;SDS011;73223;48.584;13.460;2023-11-21T08:56:47;13.93;;;4.97;;
83306;SDS011;73223;48.584;13.460;2023-11-21T08:59:13;14.97;;;4.80;;
83306;SDS011;73223;48.584;13.460;2023-11-21T09:01:39;14.07;;;4.95;;
83306;SDS011;73223;48.584;13.460;2023-11-21T09:04:04;18.30;;;4.90;;
83306;SDS011;73223;48.584;13.460;2023-11-21T09:06:30;12.07;;;4.85;;
83306;SDS011;73223;48.584;13.460;2023-11-21T09:08:55;13.97;;;5.17;;
83306;SDS011;73223;48.584;13.460;2023-11-21T09:11:20;13.00;;;5.00;;
83306;SDS011;73223;48.584;13.460;2023-11-21T09:13:46;11.17;;;4.73;;
83306;SDS011;73223;48.584;13.460;2023-11-21T09:16:11;12.65;;;4.28;;
83306;SDS011;73223;48.584;13.460;2023-11-21T09:18:38;12.00;;;4.80;;
83306;SDS011;73223;48.584;13.460;2023-11-21T09:21:03;15.13;;;4.80;;
83306;SDS011;73223;48.584;13.460;2023-11-21T09:23:29;12.20;;;4.65;;
83306;SDS011;73223;48.584;13.460;2023-11-21T09:25:54;14.57;;;4.88;;
83306;SDS011;73223;48.584;13.460;2023-11-21T09:28:22;14.27;;;5.10;;
83306;SDS011;73223;48.584;13.460;2023-11-21T09:30:47;10.32;;;4.68;;
83306;SDS011;73223;48.584;13.460;2023-11-21T09:33:14;13.00;;;4.40;;
83306;SDS011;73223;48.584;13.460;2023-11-21T09:35:40;11.35;;;4.93;;
83306;SDS011;73223;48.584;13.460;2023-11-21T09:38:05;8.13;;;3.30;;
83306;SDS011;73223;48.584;13.460;2023-11-21T09:40:35;10.70;;;3.72;;
83306;SDS011;73223;48.584;13.460;2023-11-21T09:43:00;13.00;;;3.90;;
83306;SDS011;73223;48.584;13.460;2023-11-21T09:45:34;14.70;;;4.60;;
83306;SDS011;73223;48.584;13.460;2023-11-21T09:48:00;14.27;;;4.68;;
83306;SDS011;73223;48.584;13.460;2023-11-21T09:50:26;10.88;;;4.18;;
83306;SDS011;73223;48.584;13.460;2023-11-21T09:52:55;12.85;;;5.20;;
83306;SDS011;73223;48.584;13.460;2023-11-21T09:55:26;12.65;;;5.05;;
83306;SDS011;73223;48.584;13.460;2023-11-21T09:57:54;11.40;;;4.72;;
83306;SDS011;73223;48.584;13.460;2023-11-21T10:00:22;10.10;;;4.57;;
83306;SDS011;73223;48.584;13.460;2023-11-21T10:02:48;11.93;;;4.60;;
83306;SDS011;73223;48.584;13.460;2023-11-21T10:05:15;13.35;;;5.03;;
83306;SDS011;73223;48.584;13.460;2023-11-21T10:07:42;9.90;;;4.53;;
83306;SDS011;73223;48.584;13.460;2023-11-21T10:10:09;13.77;;;5.00;;
83306;SDS011;73223;48.584;13.460;2023-11-21T10:12:35;13.48;;;5.00;;
83306;SDS011;73223;48.584;13.460;2023-11-21T10:15:01;14.07;;;5.38;;
83306;SDS011;73223;48.584;13.460;2023-11-21T10:17:28;14.68;;;5.43;;
83306;SDS011;73223;48.584;13.460;2023-11-21T10:20:01;13.50;;;5.18;;
83306;SDS011;73223;48.584;13.460;2023-11-21T10:22:31;12.68;;;5.20;;
83306;SDS011;73223;48.584;13.460;2023-11-21T10:24:56;13.20;;;5.50;;
83306;SDS011;73223;48.584;13.460;2023-11-21T10:27:22;12.30;;;5.07;;
83306;SDS011;73223;48.584;13.460;2023-11-21T10:29:48;12.80;;;4.63;;
83306;SDS011;73223;48.584;13.460;2023-11-21T10:32:16;11.63;;;4.90;;
83306;SDS011;73223;48.584;13.460;2023-11-21T10:34:41;8.23;;;3.13;;
83306;SDS011;73223;48.584;13.460;2023-11-21T10:37:13;10.60;;;2.75;;
83306;SDS011;73223;48.584;13.460;2023-11-21T10:39:38;9.48;;;3.10;;
83306;SDS011;73223;48.584;13.460;2023-11-21T10:42:04;10.38;;;3.05;;
83306;SDS011;73223;48.584;13.460;2023-11-21T10:44:33;9.43;;;3.10;;
83306;SDS011;73223;48.584;13.460;2023-11-21T10:46:59;8.95;;;3.30;;
83306;SDS011;73223;48.584;13.460;2023-11-21T10:49:26;9.32;;;3.35;;
83306;SDS011;73223;48.584;13.460;2023-11-21T10:51:52;9.65;;;3.15;;
83306;SDS011;73223;48.584;13.460;2023-11-21T10:54:22;9.27;;;2.70;;
83306;SDS011;73223;48.584;13.460;2023-11-21T10:56:49;8.23;;;2.90;;
83306;SDS011;73223;48.584;13.460;2023-11-21T10:59:18;8.18;;;2.65;;
83306;SDS011;73223;48.584;13.460;2023-11-21T11:01:45;9.55;;;2.83;;
83306;SDS011;73223;48.584;13.460;2023-11-21T11:04:11;11.80;;;3.63;;
83306;SDS011;73223;48.584;13.460;2023-11-21T11:06:44;12.35;;;4.13;;
83306;SDS011;73223;48.584;13.460;2023-11-21T11:09:13;11.70;;;4.50;;
83306;SDS011;73223;48.584;13.460;2023-11-21T11:11:41;13.93;;;5.15;;
83306;SDS011;73223;48.584;13.460;2023-11-21T11:14:10;11.90;;;3.55;;
83306;SDS011;73223;48.584;13.460;2023-11-21T11:16:37;8.63;;;4.00;;
83306;SDS011;73223;48.584;13.460;2023-11-21T11:19:06;9.75;;;3.83;;
83306;SDS011;73223;48.584;13.460;2023-11-21T11:21:41;13.23;;;4.50;;
83306;SDS011;73223;48.584;13.460;2023-11-21T11:32:24;7.78;;;3.22;;
83306;SDS011;73223;48.584;13.460;2023-11-21T11:35:14;11.32;;;4.00;;
83306;SDS011;73223;48.584;13.460;2023-11-21T11:37:47;11.40;;;3.45;;
83306;SDS011;73223;48.584;13.460;2023-11-21T11:40:13;8.55;;;3.60;;
83306;SDS011;73223;48.584;13.460;2023-11-21T11:42:38;9.32;;;3.22;;
83306;SDS011;73223;48.584;13.460;2023-11-21T11:45:19;10.85;;;2.97;;
83306;SDS011;73223;48.584;13.460;2023-11-21T11:47:44;7.18;;;2.88;;
83306;SDS011;73223;48.584;13.460;2023-11-21T11:50:13;8.75;;;2.45;;
83306;SDS011;73223;48.584;13.460;2023-11-21T11:55:15;7.47;;;2.63;;
83306;SDS011;73223;48.584;13.460;2023-11-21T11:57:48;6.47;;;2.55;;
83306;SDS011;73223;48.584;13.460;2023-11-21T12:02:48;5.82;;;2.08;;
83306;SDS011;73223;48.584;13.460;2023-11-21T12:05:15;6.43;;;2.22;;
83306;SDS011;73223;48.584;13.460;2023-11-21T12:07:50;7.20;;;2.50;;
83306;SDS011;73223;48.584;13.460;2023-11-21T12:10:22;7.22;;;2.40;;
83306;SDS011;73223;48.584;13.460;2023-11-21T12:12:50;7.65;;;2.63;;
83306;SDS011;73223;48.584;13.460;2023-11-21T12:15:20;5.82;;;2.47;;
83306;SDS011;73223;48.584;13.460;2023-11-21T12:17:47;8.18;;;2.55;;
83306;SDS011;73223;48.584;13.460;2023-11-21T12:20:19;7.65;;;2.65;;
83306;SDS011;73223;48.584;13.460;2023-11-21T12:22:49;8.27;;;2.67;;
83306;SDS011;73223;48.584;13.460;2023-11-21T12:25:18;7.82;;;2.50;;
83306;SDS011;73223;48.584;13.460;2023-11-21T12:27:48;7.18;;;2.63;;
83306;SDS011;73223;48.584;13.460;2023-11-21T12:30:15;6.50;;;2.30;;
83306;SDS011;73223;48.584;13.460;2023-11-21T12:32:42;7.07;;;2.10;;
83306;SDS011;73223;48.584;13.460;2023-11-21T12:37:36;9.98;;;2.20;;
83306;SDS011;73223;48.584;13.460;2023-11-21T12:40:03;6.53;;;2.17;;
83306;SDS011;73223;48.584;13.460;2023-11-21T12:42:30;8.02;;;2.42;;
83306;SDS011;73223;48.584;13.460;2023-11-21T12:47:58;8.63;;;2.40;;
83306;SDS011;73223;48.584;13.460;2023-11-21T12:50:32;6.28;;;2.35;;
83306;SDS011;73223;48.584;13.460;2023-11-21T12:55:43;8.57;;;2.38;;
83306;SDS011;73223;48.584;13.460;2023-11-21T12:58:14;6.20;;;1.98;;
83306;SDS011;73223;48.584;13.460;2023-11-21T13:00:46;8.55;;;2.63;;
83306;SDS011;73223;48.584;13.460;2023-11-21T13:03:13;7.25;;;2.30;;
83306;SDS011;73223;48.584;13.460;2023-11-21T13:05:45;6.68;;;2.28;;
83306;SDS011;73223;48.584;13.460;2023-11-21T13:08:15;7.85;;;2.45;;
83306;SDS011;73223;48.584;13.460;2023-11-21T13:10:44;8.52;;;2.40;;
83306;SDS011;73223;48.584;13.460;2023-11-21T13:13:12;7.60;;;2.63;;
83306;SDS011;73223;48.584;13.460;2023-11-21T13:15:48;8.25;;;2.33;;
83306;SDS011;73223;48.584;13.460;2023-11-21T13:18:16;7.32;;;2.30;;
83306;SDS011;73223;48.584;13.460;2023-11-21T13:20:42;8.38;;;2.50;;
83306;SDS011;73223;48.584;13.460;2023-11-21T13:23:09;7.28;;;2.30;;
83306;SDS011;73223;48.584;13.460;2023-11-21T13:25:37;7.97;;;2.40;;
83306;SDS011;73223;48.584;13.460;2023-11-21T13:28:03;6.05;;;2.45;;
83306;SDS011;73223;48.584;13.460;2023-11-21T13:30:30;8.43;;;2.65;;
83306;SDS011;73223;48.584;13.460;2023-11-21T13:32:59;8.57;;;3.08;;
83306;SDS011;73223;48.584;13.460;2023-11-21T13:35:31;5.97;;;2.35;;
83306;SDS011;73223;48.584;13.460;2023-11-21T13:38:09;5.88;;;2.05;;
83306;SDS011;73223;48.584;13.460;2023-11-21T13:40:36;5.82;;;2.35;;
83306;SDS011;73223;48.584;13.460;2023-11-21T13:45:44;6.00;;;1.90;;
83306;SDS011;73223;48.584;13.460;2023-11-21T13:48:11;6.78;;;2.20;;
83306;SDS011;73223;48.584;13.460;2023-11-21T13:50:41;8.15;;;2.42;;
83306;SDS011;73223;48.584;13.460;2023-11-21T13:53:20;7.55;;;2.30;;
83306;SDS011;73223;48.584;13.460;2023-11-21T13:55:49;6.35;;;2.22;;
83306;SDS011;73223;48.584;13.460;2023-11-21T13:58:22;6.28;;;2.00;;
83306;SDS011;73223;48.584;13.460;2023-11-21T14:00:59;6.50;;;2.15;;
83306;SDS011;73223;48.584;13.460;2023-11-21T14:03:26;6.03;;;2.22;;
83306;SDS011;73223;48.584;13.460;2023-11-21T14:06:04;7.40;;;2.50;;
83306;SDS011;73223;48.584;13.460;2023-11-21T14:08:39;6.22;;;2.15;;
83306;SDS011;73223;48.584;13.460;2023-11-21T14:11:04;10.98;;;2.58;;
83306;SDS011;73223;48.584;13.460;2023-11-21T14:15:57;7.40;;;2.25;;
83306;SDS011;73223;48.584;13.460;2023-11-21T14:18:24;7.43;;;2.47;;
83306;SDS011;73223;48.584;13.460;2023-11-21T14:20:59;8.25;;;2.50;;
83306;SDS011;73223;48.584;13.460;2023-11-21T14:23:24;7.93;;;2.38;;
83306;SDS011;73223;48.584;13.460;2023-11-21T14:25:50;7.20;;;2.65;;
83306;SDS011;73223;48.584;13.460;2023-11-21T14:28:16;6.15;;;2.47;;
83306;SDS011;73223;48.584;13.460;2023-11-21T14:30:42;6.82;;;2.10;;
83306;SDS011;73223;48.584;13.460;2023-11-21T14:33:07;7.77;;;2.60;;
83306;SDS011;73223;48.584;13.460;2023-11-21T14:35:34;6.35;;;2.50;;
83306;SDS011;73223;48.584;13.460;2023-11-21T14:38:00;7.88;;;2.50;;
83306;SDS011;73223;48.584;13.460;2023-11-21T14:40:27;8.73;;;2.72;;
83306;SDS011;73223;48.584;13.460;2023-11-21T14:42:57;6.13;;;2.10;;
83306;SDS011;73223;48.584;13.460;2023-11-21T14:45:23;7.10;;;2.22;;
83306;SDS011;73223;48.584;13.460;2023-11-21T14:47:51;8.68;;;2.22;;
83306;SDS011;73223;48.584;13.460;2023-11-21T14:50:31;6.80;;;2.13;;
83306;SDS011;73223;48.584;13.460;2023-11-21T14:55:42;7.10;;;2.17;;
83306;SDS011;73223;48.584;13.460;2023-11-21T14:58:16;6.78;;;2.40;;
83306;SDS011;73223;48.584;13.460;2023-11-21T15:00:51;7.15;;;2.53;;
83306;SDS011;73223;48.584;13.460;2023-11-21T15:03:24;8.18;;;2.30;;
83306;SDS011;73223;48.584;13.460;2023-11-21T15:06:08;7.15;;;2.20;;
83306;SDS011;73223;48.584;13.460;2023-11-21T15:08:56;8.82;;;2.90;;
83306;SDS011;73223;48.584;13.460;2023-11-21T15:11:42;8.70;;;3.20;;